Time;durP1;ratioP1;P1;durP2;ratioP2;P2;SDS_P1;SDS_P2;PMS_P1;PMS_P2;Temp;Humidity;BMP_temperature;BMP_pressure;BME280_temperature;BME280_humidity;BME280_pressure;Samples;Min_cycle;Max_cycle;Signal;HPM_P1;HPM_P2
2023/08/06 00:01:23;;;;;;;5.97;3.40;;;;;;;;;;4417575;32;316819;-86
2023/08/06 00:03:55;;;;;;;3.53;2.90;;;;;;;;;;4405247;32;316374;-87
2023/08/06 00:06:22;;;;;;;5.03;3.05;;;;;;;;;;4417686;32;317030;-86
2023/08/06 00:08:50;;;;;;;7.72;3.62;;;;;;;;;;4405421;32;316988;-85
2023/08/06 00:11:18;;;;;;;9.23;3.40;;;;;;;;;;4403266;32;316798;-85
2023/08/06 00:13:46;;;;;;;11.80;3.40;;;;;;;;;;4406879;32;316731;-86
2023/08/06 00:16:14;;;;;;;7.03;3.87;;;;;;;;;;4415965;32;317907;-83
2023/08/06 00:18:41;;;;;;;8.25;2.92;;;;;;;;;;4405366;32;317081;-83
2023/08/06 00:21:12;;;;;;;5.22;2.85;;;;;;;;;;4417014;32;332427;-86
2023/08/06 00:23:39;;;;;;;6.80;3.77;;;;;;;;;;4403198;32;353598;-86
2023/08/06 00:26:07;;;;;;;7.07;3.30;;;;;;;;;;4417154;32;316893;-86
2023/08/06 00:28:34;;;;;;;9.13;3.85;;;;;;;;;;4405073;32;316551;-87
2023/08/06 00:31:02;;;;;;;5.53;2.95;;;;;;;;;;4407941;32;316874;-85
2023/08/06 00:33:29;;;;;;;6.15;2.95;;;;;;;;;;4405791;32;317071;-89
2023/08/06 00:35:57;;;;;;;5.15;2.65;;;;;;;;;;4415529;32;316860;-86
2023/08/06 00:38:26;;;;;;;3.22;2.70;;;;;;;;;;4416898;32;316792;-87
2023/08/06 00:40:54;;;;;;;9.00;3.60;;;;;;;;;;4402649;32;416247;-85
2023/08/06 00:43:22;;;;;;;5.18;2.78;;;;;;;;;;4416574;32;316501;-85
2023/08/06 00:45:51;;;;;;;4.37;2.95;;;;;;;;;;4405270;32;316843;-84
2023/08/06 00:48:19;;;;;;;5.93;3.30;;;;;;;;;;4416162;32;316592;-86
2023/08/06 00:50:46;;;;;;;4.50;2.28;;;;;;;;;;4404571;32;316685;-87
2023/08/06 00:53:15;;;;;;;5.40;2.47;;;;;;;;;;4415343;32;346713;-85
2023/08/06 00:55:46;;;;;;;6.45;3.12;;;;;;;;;;4404689;32;316769;-83
2023/08/06 00:58:15;;;;;;;7.70;2.67;;;;;;;;;;4416252;32;316841;-87
2023/08/06 01:00:42;;;;;;;5.75;2.87;;;;;;;;;;4404283;32;317123;-84
2023/08/06 01:03:10;;;;;;;6.43;3.40;;;;;;;;;;4416525;32;316020;-85
2023/08/06 01:05:38;;;;;;;6.45;3.30;;;;;;;;;;4404186;32;316759;-88
2023/08/06 01:08:17;;;;;;;5.10;2.90;;;;;;;;;;4415262;32;316829;-84
2023/08/06 01:11:00;;;;;;;7.00;3.15;;;;;;;;;;4406183;32;316577;-86
2023/08/06 01:13:34;;;;;;;5.87;2.87;;;;;;;;;;4416354;32;316682;-85
2023/08/06 01:16:05;;;;;;;4.47;3.10;;;;;;;;;;4404193;32;386909;-86
2023/08/06 01:18:33;;;;;;;5.95;3.10;;;;;;;;;;4407008;32;316904;-85
2023/08/06 01:21:02;;;;;;;6.50;3.53;;;;;;;;;;4415183;32;316957;-86
2023/08/06 01:23:29;;;;;;;9.15;3.80;;;;;;;;;;4405029;32;316803;-85
2023/08/06 01:26:04;;;;;;;7.80;3.87;;;;;;;;;;4416045;32;316737;-86
2023/08/06 01:28:41;;;;;;;5.87;3.33;;;;;;;;;;4403570;32;316987;-86
2023/08/06 01:31:12;;;;;;;9.23;3.87;;;;;;;;;;4415903;32;316762;-87
2023/08/06 01:33:45;;;;;;;7.12;3.95;;;;;;;;;;4404350;32;316813;-84
2023/08/06 01:36:15;;;;;;;5.47;3.53;;;;;;;;;;4415208;32;317030;-83
2023/08/06 01:38:45;;;;;;;9.88;4.60;;;;;;;;;;4404545;32;316817;-85
2023/08/06 01:41:13;;;;;;;12.27;4.00;;;;;;;;;;4415022;32;316916;-86
2023/08/06 01:43:41;;;;;;;5.95;3.17;;;;;;;;;;4405951;32;317913;-87
2023/08/06 01:46:08;;;;;;;7.57;3.75;;;;;;;;;;4418359;32;316871;-84
2023/08/06 01:48:36;;;;;;;5.87;3.47;;;;;;;;;;4407998;32;317281;-87
2023/08/06 01:51:06;;;;;;;3.72;3.30;;;;;;;;;;4417366;32;316901;-84
2023/08/06 01:53:37;;;;;;;4.28;3.25;;;;;;;;;;4406479;32;317113;-83
2023/08/06 01:56:06;;;;;;;6.85;3.70;;;;;;;;;;4418673;32;316943;-84
2023/08/06 01:58:35;;;;;;;4.28;3.10;;;;;;;;;;4398097;32;320173;-83
2023/08/06 02:01:03;;;;;;;4.07;3.05;;;;;;;;;;4417809;32;316843;-88
2023/08/06 02:03:32;;;;;;;10.13;3.72;;;;;;;;;;4398376;32;317025;-88
2023/08/06 02:05:59;;;;;;;10.02;3.30;;;;;;;;;;4416725;32;355902;-87
2023/08/06 02:08:28;;;;;;;6.15;3.28;;;;;;;;;;4405884;32;317979;-86
2023/08/06 02:10:58;;;;;;;5.07;3.00;;;;;;;;;;4405749;32;415915;-83
2023/08/06 02:13:25;;;;;;;10.23;2.83;;;;;;;;;;4418059;32;316973;-83
2023/08/06 02:15:53;;;;;;;8.52;3.37;;;;;;;;;;4407559;32;318054;-86
2023/08/06 02:18:20;;;;;;;7.55;2.50;;;;;;;;;;4417593;32;317008;-86
2023/08/06 02:20:57;;;;;;;4.65;3.12;;;;;;;;;;4407359;32;316974;-86
2023/08/06 02:23:25;;;;;;;6.78;2.40;;;;;;;;;;4419285;32;316838;-84
2023/08/06 02:26:00;;;;;;;3.80;2.35;;;;;;;;;;4407747;32;316897;-87
2023/08/06 02:28:28;;;;;;;4.55;2.72;;;;;;;;;;4418884;32;316988;-85
2023/08/06 02:30:55;;;;;;;7.20;2.40;;;;;;;;;;4404362;32;386506;-86
2023/08/06 02:33:23;;;;;;;6.72;2.87;;;;;;;;;;4417371;32;316803;-83
2023/08/06 02:35:50;;;;;;;4.60;2.65;;;;;;;;;;4406985;32;317086;-84
2023/08/06 02:38:18;;;;;;;17.52;2.67;;;;;;;;;;4419026;32;316750;-83
2023/08/06 02:40:46;;;;;;;5.37;2.20;;;;;;;;;;4405857;32;346469;-86
2023/08/06 02:43:15;;;;;;;4.05;2.80;;;;;;;;;;4419035;32;317113;-85
2023/08/06 02:45:43;;;;;;;5.47;3.25;;;;;;;;;;4408095;32;316864;-84
2023/08/06 02:48:10;;;;;;;8.73;2.47;;;;;;;;;;4417989;32;316432;-87
2023/08/06 02:50:41;;;;;;;5.85;2.58;;;;;;;;;;4407184;32;316550;-87
2023/08/06 02:53:09;;;;;;;3.35;3.00;;;;;;;;;;4418511;32;317160;-87
2023/08/06 02:55:37;;;;;;;7.25;2.33;;;;;;;;;;4406974;32;316789;-87
2023/08/06 02:58:04;;;;;;;5.18;2.87;;;;;;;;;;4417750;32;316599;-85
2023/08/06 03:00:34;;;;;;;4.40;2.90;;;;;;;;;;4408256;32;316928;-86
2023/08/06 03:03:01;;;;;;;9.07;2.80;;;;;;;;;;4418256;32;316667;-87
2023/08/06 03:05:29;;;;;;;6.80;2.80;;;;;;;;;;4408781;32;317007;-86
2023/08/06 03:07:56;;;;;;;3.70;3.05;;;;;;;;;;4417795;32;317186;-85
2023/08/06 03:10:24;;;;;;;5.18;2.78;;;;;;;;;;4417256;32;316781;-86
2023/08/06 03:12:51;;;;;;;6.62;3.12;;;;;;;;;;4405808;32;316808;-86
2023/08/06 03:15:19;;;;;;;3.12;2.30;;;;;;;;;;4417920;32;316803;-86
2023/08/06 03:17:48;;;;;;;2.60;2.25;;;;;;;;;;4407343;32;316597;-86
2023/08/06 03:20:15;;;;;;;5.82;3.05;;;;;;;;;;4417269;32;316829;-87
2023/08/06 03:22:43;;;;;;;5.57;2.25;;;;;;;;;;4407918;32;316829;-86
2023/08/06 03:25:10;;;;;;;4.65;2.00;;;;;;;;;;4416061;32;316874;-85
2023/08/06 03:27:37;;;;;;;7.60;1.80;;;;;;;;;;4406677;32;316947;-86
2023/08/06 03:30:05;;;;;;;4.10;1.55;;;;;;;;;;4418096;32;315730;-88
2023/08/06 03:32:33;;;;;;;2.62;1.50;;;;;;;;;;4407524;32;316949;-88
2023/08/06 03:35:02;;;;;;;4.85;1.60;;;;;;;;;;4416603;32;317024;-88
2023/08/06 03:37:29;;;;;;;2.90;1.58;;;;;;;;;;4406557;32;316935;-87
2023/08/06 03:39:57;;;;;;;2.83;1.55;;;;;;;;;;4418187;32;316688;-86
2023/08/06 03:42:24;;;;;;;5.35;2.33;;;;;;;;;;4418066;32;316707;-86
2023/08/06 03:44:52;;;;;;;5.43;2.08;;;;;;;;;;4404434;32;317354;-86
2023/08/06 03:47:19;;;;;;;7.85;2.72;;;;;;;;;;4417687;32;316606;-86
2023/08/06 03:49:46;;;;;;;6.12;2.53;;;;;;;;;;4405022;32;316646;-87
2023/08/06 03:52:15;;;;;;;5.40;2.10;;;;;;;;;;4417939;32;317196;-87
2023/08/06 03:54:43;;;;;;;4.00;2.05;;;;;;;;;;4406588;32;316985;-86
2023/08/06 03:57:11;;;;;;;4.50;1.73;;;;;;;;;;4417692;32;316906;-87
2023/08/06 03:59:38;;;;;;;2.40;1.90;;;;;;;;;;4405799;32;332503;-86
2023/08/06 04:02:06;;;;;;;7.25;3.25;;;;;;;;;;4417844;32;317018;-87
2023/08/06 04:04:33;;;;;;;4.05;2.42;;;;;;;;;;4405930;32;317307;-87
2023/08/06 04:07:01;;;;;;;5.80;2.80;;;;;;;;;;4416973;32;316744;-86
2023/08/06 04:09:31;;;;;;;4.62;2.80;;;;;;;;;;4417096;32;316723;-85
2023/08/06 04:12:01;;;;;;;7.37;3.05;;;;;;;;;;4404095;32;415956;-87
2023/08/06 04:14:29;;;;;;;5.22;3.08;;;;;;;;;;4415348;32;316614;-86
2023/08/06 04:16:56;;;;;;;10.65;2.53;;;;;;;;;;4416680;32;316647;-86
2023/08/06 04:19:25;;;;;;;7.47;3.03;;;;;;;;;;4417320;32;318353;-85
2023/08/06 04:21:52;;;;;;;2.95;2.55;;;;;;;;;;4406391;32;316493;-86
2023/08/06 04:24:20;;;;;;;6.65;3.10;;;;;;;;;;4416036;32;316450;-87
2023/08/06 04:26:49;;;;;;;6.50;3.25;;;;;;;;;;4405756;32;316795;-86
2023/08/06 04:29:16;;;;;;;12.98;2.87;;;;;;;;;;4415194;32;322926;-87
2023/08/06 04:31:44;;;;;;;11.00;3.03;;;;;;;;;;4404960;32;317663;-86
2023/08/06 04:34:11;;;;;;;8.20;3.20;;;;;;;;;;4416840;32;324319;-86
2023/08/06 04:36:39;;;;;;;4.57;3.22;;;;;;;;;;4405889;32;316771;-87
2023/08/06 04:39:07;;;;;;;9.93;3.17;;;;;;;;;;4417218;32;316928;-85
2023/08/06 04:41:34;;;;;;;6.00;2.97;;;;;;;;;;4406413;32;316716;-85
2023/08/06 04:44:04;;;;;;;8.32;3.58;;;;;;;;;;4415622;32;316721;-85
2023/08/06 04:46:31;;;;;;;7.25;3.67;;;;;;;;;;4405863;32;319865;-85
2023/08/06 04:48:58;;;;;;;5.60;3.15;;;;;;;;;;4415812;32;316903;-87
2023/08/06 04:51:26;;;;;;;9.02;2.78;;;;;;;;;;4415924;32;316485;-86
2023/08/06 04:53:53;;;;;;;4.95;3.08;;;;;;;;;;4402230;32;415068;-86
2023/08/06 04:56:21;;;;;;;8.30;3.10;;;;;;;;;;4416232;32;316745;-86
2023/08/06 04:58:49;;;;;;;7.47;3.78;;;;;;;;;;4404155;32;357117;-86
2023/08/06 05:01:18;;;;;;;5.37;2.97;;;;;;;;;;4416432;32;316532;-86
2023/08/06 05:03:45;;;;;;;6.22;3.58;;;;;;;;;;4406407;32;316388;-86
2023/08/06 05:06:12;;;;;;;8.38;3.75;;;;;;;;;;4414858;32;316550;-85
2023/08/06 05:08:40;;;;;;;7.18;3.92;;;;;;;;;;4405846;32;316795;-83
2023/08/06 05:11:07;;;;;;;6.40;4.07;;;;;;;;;;4415081;32;316882;-83
2023/08/06 05:13:35;;;;;;;10.23;4.18;;;;;;;;;;4406618;32;316915;-84
2023/08/06 05:16:02;;;;;;;9.75;4.00;;;;;;;;;;4406617;32;356464;-85
2023/08/06 05:18:31;;;;;;;7.43;3.72;;;;;;;;;;4403705;32;316710;-86
2023/08/06 05:20:59;;;;;;;7.43;3.15;;;;;;;;;;4416439;32;316841;-86
2023/08/06 05:23:26;;;;;;;6.12;3.40;;;;;;;;;;4402436;32;317179;-86
2023/08/06 05:25:54;;;;;;;4.47;3.45;;;;;;;;;;4401494;32;415971;-83
2023/08/06 05:28:23;;;;;;;4.75;2.28;;;;;;;;;;4415744;32;316916;-85
2023/08/06 05:30:52;;;;;;;3.08;2.62;;;;;;;;;;4404164;32;317171;-85
2023/08/06 05:33:20;;;;;;;13.95;3.20;;;;;;;;;;4412459;32;315855;-85
2023/08/06 05:35:51;;;;;;;4.47;2.53;;;;;;;;;;4393428;32;317415;-85
2023/08/06 05:38:19;;;;;;;4.90;3.28;;;;;;;;;;4414454;32;338311;-85
2023/08/06 05:40:49;;;;;;;9.43;2.92;;;;;;;;;;4402466;32;316816;-85
2023/08/06 05:43:17;;;;;;;4.20;3.35;;;;;;;;;;4413804;32;340763;-86
2023/08/06 05:45:46;;;;;;;4.65;2.72;;;;;;;;;;4403617;32;316729;-86
2023/08/06 05:48:14;;;;;;;5.00;2.92;;;;;;;;;;4416032;32;316587;-86
2023/08/06 05:50:42;;;;;;;3.20;2.72;;;;;;;;;;4405264;32;316785;-84
2023/08/06 05:53:11;;;;;;;6.55;2.80;;;;;;;;;;4415675;32;316130;-83
2023/08/06 05:55:39;;;;;;;4.47;2.67;;;;;;;;;;4404513;32;316652;-83
2023/08/06 05:58:07;;;;;;;9.50;3.47;;;;;;;;;;4415986;32;316583;-84
2023/08/06 06:00:35;;;;;;;11.30;3.47;;;;;;;;;;4403166;32;342844;-84
2023/08/06 06:03:02;;;;;;;11.35;3.80;;;;;;;;;;4414426;32;317563;-83
2023/08/06 06:05:30;;;;;;;8.73;2.78;;;;;;;;;;4404565;32;318104;-83
2023/08/06 06:07:57;;;;;;;3.15;2.58;;;;;;;;;;4414681;32;316598;-82
2023/08/06 06:10:26;;;;;;;6.45;2.87;;;;;;;;;;4415852;32;316982;-82
2023/08/06 06:12:54;;;;;;;6.07;3.70;;;;;;;;;;4403971;32;386857;-82
2023/08/06 06:15:22;;;;;;;6.00;3.78;;;;;;;;;;4414214;32;316580;-82
2023/08/06 06:17:49;;;;;;;6.78;3.08;;;;;;;;;;4406284;32;315523;-82
2023/08/06 06:20:17;;;;;;;6.20;3.28;;;;;;;;;;4413601;32;315456;-82
2023/08/06 06:22:44;;;;;;;5.03;3.05;;;;;;;;;;4400673;32;316970;-82
2023/08/06 06:25:12;;;;;;;11.52;3.17;;;;;;;;;;4413982;32;316699;-81
2023/08/06 06:27:40;;;;;;;5.37;3.28;;;;;;;;;;4405412;32;317711;-82
2023/08/06 06:30:11;;;;;;;4.53;2.78;;;;;;;;;;4416952;32;317138;-81
2023/08/06 06:32:39;;;;;;;5.57;2.65;;;;;;;;;;4406155;32;316551;-82
2023/08/06 06:35:07;;;;;;;10.20;3.85;;;;;;;;;;4419163;32;316543;-82
2023/08/06 06:37:35;;;;;;;4.35;2.72;;;;;;;;;;4407676;32;317584;-83
2023/08/06 06:40:03;;;;;;;4.72;2.67;;;;;;;;;;4418017;32;316773;-83
2023/08/06 06:42:31;;;;;;;6.22;3.53;;;;;;;;;;4407088;32;316638;-83
2023/08/06 06:45:00;;;;;;;6.40;2.53;;;;;;;;;;4417623;32;316611;-82
2023/08/06 06:47:27;;;;;;;4.43;3.17;;;;;;;;;;4418093;32;316642;-83
2023/08/06 06:49:54;;;;;;;3.72;2.10;;;;;;;;;;4403349;32;415721;-82
2023/08/06 06:52:42;;;;;;;4.87;2.40;;;;;;;;;;4418229;32;316801;-83
2023/08/06 06:55:10;;;;;;;6.55;3.33;;;;;;;;;;4403777;32;416209;-84
2023/08/06 06:57:37;;;;;;;7.37;2.07;;;;;;;;;;4405693;32;316761;-84
2023/08/06 07:00:08;;;;;;;3.78;2.05;;;;;;;;;;4418343;32;316819;-83
2023/08/06 07:02:35;;;;;;;4.20;2.45;;;;;;;;;;4406884;32;316720;-84
2023/08/06 07:05:03;;;;;;;6.28;2.50;;;;;;;;;;4417774;32;316585;-85
2023/08/06 07:07:31;;;;;;;3.65;2.28;;;;;;;;;;4407543;32;316671;-85
2023/08/06 07:09:58;;;;;;;3.33;2.20;;;;;;;;;;4417887;32;316539;-84
2023/08/06 07:12:25;;;;;;;2.15;1.87;;;;;;;;;;4416019;32;340706;-82
2023/08/06 07:14:53;;;;;;;2.62;2.12;;;;;;;;;;4406298;32;316757;-82
2023/08/06 07:17:22;;;;;;;2.85;1.85;;;;;;;;;;4417761;32;316638;-82
2023/08/06 07:19:49;;;;;;;8.35;2.15;;;;;;;;;;4407896;32;316565;-82
2023/08/06 07:22:17;;;;;;;3.75;2.03;;;;;;;;;;4415641;32;316941;-82
2023/08/06 07:24:44;;;;;;;4.25;2.03;;;;;;;;;;4406533;32;317217;-82
2023/08/06 07:27:11;;;;;;;7.68;2.35;;;;;;;;;;4416302;32;316543;-83
2023/08/06 07:29:39;;;;;;;4.68;2.15;;;;;;;;;;4406154;32;316740;-82
2023/08/06 07:32:08;;;;;;;3.35;2.20;;;;;;;;;;4417872;32;316777;-82
2023/08/06 07:34:37;;;;;;;4.57;3.05;;;;;;;;;;4407012;32;316673;-82
2023/08/06 07:37:05;;;;;;;6.62;3.62;;;;;;;;;;4417527;32;316895;-84
2023/08/06 07:39:33;;;;;;;7.15;4.68;;;;;;;;;;4405131;32;316818;-83
2023/08/06 07:42:02;;;;;;;9.32;4.57;;;;;;;;;;4417015;32;316844;-84
2023/08/06 07:44:30;;;;;;;7.78;3.25;;;;;;;;;;4406263;32;316927;-85
2023/08/06 07:46:58;;;;;;;3.17;2.30;;;;;;;;;;4417104;32;316755;-83
2023/08/06 07:49:25;;;;;;;4.18;2.53;;;;;;;;;;4416127;32;317187;-82
2023/08/06 07:51:54;;;;;;;2.58;1.83;;;;;;;;;;4405544;32;333209;-81
2023/08/06 07:54:22;;;;;;;2.55;1.67;;;;;;;;;;4415489;32;316921;-83
2023/08/06 07:56:49;;;;;;;2.47;2.05;;;;;;;;;;4406693;32;316727;-83
2023/08/06 07:59:17;;;;;;;2.58;1.70;;;;;;;;;;4416516;32;315653;-82
2023/08/06 08:01:44;;;;;;;3.65;2.50;;;;;;;;;;4404832;32;316984;-83
2023/08/06 08:04:12;;;;;;;5.45;2.60;;;;;;;;;;4415842;32;316672;-84
2023/08/06 08:06:39;;;;;;;4.90;1.83;;;;;;;;;;4405824;32;358832;-84
2023/08/06 08:09:08;;;;;;;5.90;1.73;;;;;;;;;;4415867;32;316893;-84
2023/08/06 08:11:36;;;;;;;5.40;1.85;;;;;;;;;;4402821;32;317095;-84
2023/08/06 08:14:03;;;;;;;4.20;3.20;;;;;;;;;;4416501;32;316797;-84
2023/08/06 08:16:31;;;;;;;2.95;1.92;;;;;;;;;;4405405;32;316591;-85
2023/08/06 08:18:58;;;;;;;2.78;1.87;;;;;;;;;;4416714;32;316826;-87
2023/08/06 08:21:26;;;;;;;4.57;2.10;;;;;;;;;;4408910;32;316761;-84
2023/08/06 08:23:53;;;;;;;2.78;1.58;;;;;;;;;;4405771;32;316603;-83
2023/08/06 08:26:23;;;;;;;4.97;2.90;;;;;;;;;;4416612;32;316578;-82
2023/08/06 08:28:51;;;;;;;6.50;2.22;;;;;;;;;;4405658;32;317221;-83
2023/08/06 08:31:18;;;;;;;4.03;1.90;;;;;;;;;;4417397;32;316739;-86
2023/08/06 08:33:45;;;;;;;1.95;1.70;;;;;;;;;;4406106;32;317070;-85
2023/08/06 08:36:13;;;;;;;1.95;1.65;;;;;;;;;;4415575;32;316715;-85
2023/08/06 08:38:42;;;;;;;5.47;2.00;;;;;;;;;;4404628;32;316758;-85
2023/08/06 08:41:11;;;;;;;4.78;2.15;;;;;;;;;;4416822;32;315312;-85
2023/08/06 08:43:43;;;;;;;8.18;2.53;;;;;;;;;;4405050;32;316888;-84
2023/08/06 08:46:13;;;;;;;5.15;2.20;;;;;;;;;;4415902;32;316631;-85
2023/08/06 08:48:41;;;;;;;2.10;1.65;;;;;;;;;;4405621;32;316826;-84
2023/08/06 08:51:10;;;;;;;4.03;1.98;;;;;;;;;;4415222;32;316375;-84
2023/08/06 08:53:39;;;;;;;5.53;2.50;;;;;;;;;;4404579;32;316927;-84
2023/08/06 08:56:07;;;;;;;2.22;1.65;;;;;;;;;;4415484;32;316732;-84
2023/08/06 08:58:34;;;;;;;2.45;1.42;;;;;;;;;;4404677;32;317053;-82
2023/08/06 09:01:04;;;;;;;4.28;2.22;;;;;;;;;;4414300;32;354889;-81
2023/08/06 09:03:33;;;;;;;4.47;1.70;;;;;;;;;;4401241;32;328202;-82
2023/08/06 09:06:03;;;;;;;11.77;2.08;;;;;;;;;;4413771;32;316637;-81
2023/08/06 09:08:35;;;;;;;5.53;1.60;;;;;;;;;;4403198;32;317981;-82
2023/08/06 09:11:04;;;;;;;1.58;1.05;;;;;;;;;;4415474;32;317104;-84
2023/08/06 09:13:31;;;;;;;2.58;1.37;;;;;;;;;;4405532;32;317246;-85
2023/08/06 09:15:59;;;;;;;2.58;1.35;;;;;;;;;;4413766;32;316797;-84
2023/08/06 09:18:31;;;;;;;2.25;1.23;;;;;;;;;;4416161;32;316900;-84
2023/08/06 09:20:59;;;;;;;2.12;1.00;;;;;;;;;;4402219;32;417072;-83
2023/08/06 09:23:30;;;;;;;4.53;1.27;;;;;;;;;;4416207;32;316628;-85
2023/08/06 09:25:58;;;;;;;6.55;1.45;;;;;;;;;;4402002;32;415666;-82
2023/08/06 09:28:26;;;;;;;4.65;1.35;;;;;;;;;;4416425;32;316861;-82
2023/08/06 09:30:56;;;;;;;2.85;1.30;;;;;;;;;;4403499;32;316592;-80
2023/08/06 09:33:24;;;;;;;2.53;1.40;;;;;;;;;;4415585;32;316619;-80
2023/08/06 09:35:54;;;;;;;3.92;1.10;;;;;;;;;;4405109;32;316844;-82
2023/08/06 09:38:22;;;;;;;1.80;1.08;;;;;;;;;;4415152;32;316968;-81
2023/08/06 09:40:50;;;;;;;1.62;1.15;;;;;;;;;;4404574;32;316761;-81
2023/08/06 09:43:20;;;;;;;4.50;1.33;;;;;;;;;;4414209;32;316786;-83
2023/08/06 09:45:47;;;;;;;9.07;1.73;;;;;;;;;;4405774;32;316954;-83
2023/08/06 09:48:14;;;;;;;1.45;0.95;;;;;;;;;;4414424;32;316759;-82
2023/08/06 09:50:42;;;;;;;2.17;1.48;;;;;;;;;;4404896;32;316907;-82
2023/08/06 09:53:11;;;;;;;2.78;1.30;;;;;;;;;;4416306;32;316974;-83
2023/08/06 09:55:39;;;;;;;2.47;1.58;;;;;;;;;;4405323;32;316750;-82
2023/08/06 09:58:07;;;;;;;2.45;1.40;;;;;;;;;;4412847;32;316622;-83
2023/08/06 10:00:35;;;;;;;2.70;1.40;;;;;;;;;;4403496;32;316828;-84
2023/08/06 10:03:03;;;;;;;2.03;1.20;;;;;;;;;;4414347;32;316734;-84
2023/08/06 10:05:32;;;;;;;1.83;1.37;;;;;;;;;;4406666;32;317156;-85
2023/08/06 10:08:03;;;;;;;1.00;0.90;;;;;;;;;;4417419;32;316788;-82
2023/08/06 10:10:33;;;;;;;3.20;1.20;;;;;;;;;;4404736;32;317039;-83
2023/08/06 10:13:02;;;;;;;1.65;1.12;;;;;;;;;;4418346;32;316696;-82
2023/08/06 10:15:36;;;;;;;3.62;1.87;;;;;;;;;;4417007;32;316599;-83
2023/08/06 10:18:04;;;;;;;6.05;1.85;;;;;;;;;;4417933;32;316638;-82
2023/08/06 10:20:35;;;;;;;3.17;1.55;;;;;;;;;;4407429;32;316643;-83
2023/08/06 10:23:04;;;;;;;2.53;1.48;;;;;;;;;;4417991;32;316747;-82
2023/08/06 10:25:36;;;;;;;1.50;1.10;;;;;;;;;;4408340;32;316775;-82
2023/08/06 10:28:10;;;;;;;1.77;1.33;;;;;;;;;;4416329;32;316733;-82
2023/08/06 10:30:44;;;;;;;6.43;1.80;;;;;;;;;;4407068;32;316733;-83
2023/08/06 10:33:12;;;;;;;3.50;1.50;;;;;;;;;;4417995;32;316573;-80
2023/08/06 10:35:43;;;;;;;1.80;1.25;;;;;;;;;;4407242;32;316795;-80
2023/08/06 10:38:13;;;;;;;3.28;1.55;;;;;;;;;;4418663;32;316928;-80
2023/08/06 10:40:43;;;;;;;5.80;1.40;;;;;;;;;;4408148;32;317061;-81
2023/08/06 10:43:28;;;;;;;4.70;1.77;;;;;;;;;;4417148;32;355362;-80
2023/08/06 10:45:55;;;;;;;1.87;1.30;;;;;;;;;;4403696;32;416121;-81
2023/08/06 10:48:41;;;;;;;4.65;1.35;;;;;;;;;;4416779;32;316841;-81
2023/08/06 10:51:10;;;;;;;2.78;1.30;;;;;;;;;;4403304;32;417020;-81
2023/08/06 10:53:37;;;;;;;5.55;1.20;;;;;;;;;;4406911;32;316772;-81
2023/08/06 10:56:15;;;;;;;3.03;1.15;;;;;;;;;;4417111;32;316795;-81
2023/08/06 10:58:42;;;;;;;2.87;1.20;;;;;;;;;;4407514;32;317032;-80
2023/08/06 11:01:10;;;;;;;1.75;1.17;;;;;;;;;;4416794;32;316658;-82
2023/08/06 11:03:38;;;;;;;2.72;1.35;;;;;;;;;;4407350;32;316427;-81
2023/08/06 11:06:08;;;;;;;3.37;2.00;;;;;;;;;;4416803;32;343751;-82
2023/08/06 11:08:37;;;;;;;1.30;1.13;;;;;;;;;;4404491;32;316951;-81
2023/08/06 11:11:12;;;;;;;3.92;1.30;;;;;;;;;;4417969;32;316559;-81
2023/08/06 11:13:41;;;;;;;2.40;1.30;;;;;;;;;;4406403;32;316615;-81
2023/08/06 11:16:10;;;;;;;2.60;1.37;;;;;;;;;;4414547;32;316650;-81
2023/08/06 11:18:37;;;;;;;2.00;1.25;;;;;;;;;;4404622;32;316816;-81
2023/08/06 11:21:05;;;;;;;2.53;1.12;;;;;;;;;;4417333;32;316716;-81
2023/08/06 11:23:32;;;;;;;9.77;1.25;;;;;;;;;;4402631;32;316789;-81
2023/08/06 11:26:00;;;;;;;4.75;1.50;;;;;;;;;;4417328;32;316879;-81
2023/08/06 11:28:27;;;;;;;2.53;1.30;;;;;;;;;;4416139;32;316941;-82
2023/08/06 11:31:00;;;;;;;1.40;1.20;;;;;;;;;;4403599;32;415872;-81
2023/08/06 11:33:31;;;;;;;1.90;1.20;;;;;;;;;;4414687;32;317107;-81
2023/08/06 11:36:00;;;;;;;2.75;1.33;;;;;;;;;;4402392;32;415839;-81
2023/08/06 11:38:28;;;;;;;3.78;1.70;;;;;;;;;;4416003;32;316452;-81
2023/08/06 11:40:56;;;;;;;2.47;1.50;;;;;;;;;;4403958;32;416125;-81
2023/08/06 11:43:24;;;;;;;1.40;1.15;;;;;;;;;;4416918;32;316608;-80
2023/08/06 11:45:54;;;;;;;1.40;1.30;;;;;;;;;;4404488;32;316841;-81
2023/08/06 11:48:23;;;;;;;6.15;1.75;;;;;;;;;;4417340;32;316614;-80
2023/08/06 11:50:55;;;;;;;2.08;1.30;;;;;;;;;;4407026;32;316820;-81
2023/08/06 11:53:23;;;;;;;1.85;1.15;;;;;;;;;;4417506;32;316545;-81
2023/08/06 11:55:51;;;;;;;1.90;1.33;;;;;;;;;;4406168;32;316737;-82
2023/08/06 11:58:19;;;;;;;3.17;1.52;;;;;;;;;;4415751;32;337254;-81
2023/08/06 12:00:46;;;;;;;1.55;0.93;;;;;;;;;;4406941;32;316788;-81
2023/08/06 12:03:14;;;;;;;2.12;1.23;;;;;;;;;;4417353;32;320937;-81
2023/08/06 12:05:46;;;;;;;4.22;1.23;;;;;;;;;;4406247;32;316731;-81
2023/08/06 12:08:14;;;;;;;3.05;1.40;;;;;;;;;;4417332;32;319893;-81
2023/08/06 12:10:41;;;;;;;3.35;1.33;;;;;;;;;;4405893;32;316663;-81
2023/08/06 12:13:09;;;;;;;2.30;1.65;;;;;;;;;;4417085;32;316861;-81
2023/08/06 12:15:36;;;;;;;8.10;1.37;;;;;;;;;;4405258;32;316576;-81
2023/08/06 12:18:04;;;;;;;1.85;1.27;;;;;;;;;;4416838;32;316722;-81
2023/08/06 12:20:31;;;;;;;1.35;1.20;;;;;;;;;;4406319;32;316790;-81
2023/08/06 12:23:00;;;;;;;1.10;0.80;;;;;;;;;;4416256;32;317680;-83
2023/08/06 12:25:40;;;;;;;1.87;1.30;;;;;;;;;;4415935;32;315825;-82
2023/08/06 12:28:09;;;;;;;1.62;1.02;;;;;;;;;;4399517;32;415904;-81
2023/08/06 12:30:37;;;;;;;1.80;1.20;;;;;;;;;;4405645;32;317044;-80
2023/08/06 12:33:04;;;;;;;4.37;1.30;;;;;;;;;;4415738;32;317272;-80
2023/08/06 12:35:31;;;;;;;4.00;1.15;;;;;;;;;;4405974;32;317045;-81
2023/08/06 12:38:00;;;;;;;3.70;1.33;;;;;;;;;;4415212;32;334412;-81
2023/08/06 12:40:28;;;;;;;0.93;0.80;;;;;;;;;;4416799;32;316853;-81
2023/08/06 12:42:55;;;;;;;1.27;1.10;;;;;;;;;;4402628;32;420063;-81
2023/08/06 12:45:23;;;;;;;2.10;1.20;;;;;;;;;;4417675;32;316707;-81
2023/08/06 12:47:50;;;;;;;4.90;1.42;;;;;;;;;;4407459;32;316706;-81
2023/08/06 12:50:18;;;;;;;3.92;1.42;;;;;;;;;;4416877;32;316535;-81
2023/08/06 12:52:45;;;;;;;3.25;1.52;;;;;;;;;;4404663;32;316908;-81
2023/08/06 12:55:14;;;;;;;1.83;1.23;;;;;;;;;;4416694;32;316688;-81
2023/08/06 12:57:42;;;;;;;1.98;0.98;;;;;;;;;;4405294;32;316798;-81
2023/08/06 13:00:10;;;;;;;1.67;1.20;;;;;;;;;;4415500;32;316882;-81
2023/08/06 13:02:39;;;;;;;2.83;0.98;;;;;;;;;;4405405;32;316901;-82
2023/08/06 13:05:08;;;;;;;1.40;1.05;;;;;;;;;;4416126;32;316887;-82
2023/08/06 13:07:36;;;;;;;1.40;1.10;;;;;;;;;;4405538;32;316703;-83
2023/08/06 13:10:04;;;;;;;3.67;1.37;;;;;;;;;;4414575;32;316502;-84
2023/08/06 13:12:33;;;;;;;1.30;1.20;;;;;;;;;;4404393;32;317066;-84
2023/08/06 13:15:00;;;;;;;2.03;0.93;;;;;;;;;;4415728;32;316643;-84
2023/08/06 13:17:28;;;;;;;2.47;1.20;;;;;;;;;;4415985;32;316729;-84
2023/08/06 13:19:55;;;;;;;1.95;1.30;;;;;;;;;;4397666;32;388380;-82
2023/08/06 13:22:23;;;;;;;1.83;1.23;;;;;;;;;;4415229;32;316643;-81
2023/08/06 13:24:51;;;;;;;3.60;1.50;;;;;;;;;;4405498;32;316810;-80
2023/08/06 13:27:18;;;;;;;0.82;0.73;;;;;;;;;;4414304;32;316737;-81
2023/08/06 13:29:47;;;;;;;1.50;1.00;;;;;;;;;;4403448;32;316690;-81
2023/08/06 13:32:14;;;;;;;1.58;1.00;;;;;;;;;;4415370;32;316847;-81
2023/08/06 13:34:42;;;;;;;1.92;1.15;;;;;;;;;;4404609;32;316863;-81
2023/08/06 13:37:10;;;;;;;1.90;1.00;;;;;;;;;;4415163;32;316786;-81
2023/08/06 13:39:38;;;;;;;2.92;1.40;;;;;;;;;;4405028;32;316735;-81
2023/08/06 13:42:05;;;;;;;3.47;0.90;;;;;;;;;;4414755;32;316813;-81
2023/08/06 13:44:35;;;;;;;2.55;1.10;;;;;;;;;;4405262;32;317038;-82
2023/08/06 13:47:04;;;;;;;9.10;1.20;;;;;;;;;;4415415;32;316951;-81
2023/08/06 13:49:31;;;;;;;6.65;0.82;;;;;;;;;;4401225;32;316986;-82
2023/08/06 13:51:59;;;;;;;3.42;0.80;;;;;;;;;;4416599;32;316661;-81
2023/08/06 13:54:26;;;;;;;2.22;0.93;;;;;;;;;;4415296;32;316859;-81
2023/08/06 13:56:53;;;;;;;4.00;1.20;;;;;;;;;;4404266;32;316773;-80
2023/08/06 13:59:21;;;;;;;3.70;1.33;;;;;;;;;;4415908;32;315642;-82
2023/08/06 14:01:48;;;;;;;1.17;1.08;;;;;;;;;;4403725;32;332617;-83
2023/08/06 14:04:17;;;;;;;4.40;1.20;;;;;;;;;;4415733;32;316736;-83
2023/08/06 14:06:45;;;;;;;2.17;1.40;;;;;;;;;;4405252;32;316897;-85
2023/08/06 14:09:14;;;;;;;1.33;1.05;;;;;;;;;;4413553;32;316739;-82
2023/08/06 14:11:42;;;;;;;1.77;1.05;;;;;;;;;;4404852;32;316862;-83
2023/08/06 14:14:09;;;;;;;1.90;1.30;;;;;;;;;;4416206;32;317035;-82
2023/08/06 14:16:37;;;;;;;1.55;1.10;;;;;;;;;;4392499;32;316753;-84
2023/08/06 14:19:04;;;;;;;1.40;1.12;;;;;;;;;;4415181;32;316580;-82
2023/08/06 14:21:34;;;;;;;4.78;1.10;;;;;;;;;;4405591;32;316694;-83
2023/08/06 14:24:01;;;;;;;1.92;1.20;;;;;;;;;;4415663;32;333315;-83
2023/08/06 14:26:28;;;;;;;1.17;0.93;;;;;;;;;;4415883;32;317039;-82
2023/08/06 14:28:56;;;;;;;1.30;0.90;;;;;;;;;;4402855;32;419355;-83
2023/08/06 14:31:23;;;;;;;2.28;1.00;;;;;;;;;;4415263;32;316902;-83
2023/08/06 14:33:51;;;;;;;1.45;1.00;;;;;;;;;;4406096;32;317230;-83
2023/08/06 14:36:18;;;;;;;2.25;1.00;;;;;;;;;;4414876;32;316846;-84